Time;durP1;ratioP1;P1;durP2;ratioP2;P2;SDS_P1;SDS_P2;PMS_P1;PMS_P2;Temp;Humidity;BMP_temperature;BMP_pressure;BME280_temperature;BME280_humidity;BME280_pressure;Samples;Min_cycle;Max_cycle;Signal;HPM_P1;HPM_P2
2022/01/22 00:00:42;;;;;;;9.90;2.92;;;;;;;-1.08;72.94;101022.66;4922171;29;20048;-93
2022/01/22 00:03:10;;;;;;;8.40;2.30;;;;;;;-1.05;72.76;101027.88;4927419;29;20083;-93
2022/01/22 00:05:37;;;;;;;13.57;4.03;;;;;;;-1.17;72.57;101007.00;4921168;29;20052;-94
2022/01/22 00:08:05;;;;;;;16.45;3.70;;;;;;;-1.09;72.68;101026.00;4924311;29;21001;-93
2022/01/22 00:10:32;;;;;;;19.63;3.80;;;;;;;-1.10;72.79;101014.09;4923158;29;20064;-93
2022/01/22 00:15:51;;;;;;;18.02;3.72;;;;;;;-1.07;72.96;101025.28;4923507;29;20044;-92
2022/01/22 00:18:19;;;;;;;14.95;3.38;;;;;;;-1.02;72.68;101028.06;4923930;29;20048;-95
2022/01/22 00:20:47;;;;;;;9.48;2.78;;;;;;;-1.04;72.79;101016.91;4919115;29;20122;-95
2022/01/22 00:23:16;;;;;;;16.48;4.10;;;;;;;-1.00;72.74;101023.91;4923032;29;20055;-92
2022/01/22 00:25:43;;;;;;;12.43;3.67;;;;;;;-1.00;73.00;101021.34;4924396;29;20079;-93
2022/01/22 00:28:11;;;;;;;11.48;2.63;;;;;;;-1.07;73.11;101010.00;4921122;29;20047;-94
2022/01/22 00:30:38;;;;;;;11.52;3.50;;;;;;;-0.98;72.69;101029.91;4916061;29;20043;-93
2022/01/22 00:33:07;;;;;;;10.45;2.63;;;;;;;-1.04;73.27;101029.63;4926136;29;20055;-93
2022/01/22 00:35:35;;;;;;;11.77;3.10;;;;;;;-0.98;73.53;101040.09;4921109;29;20056;-92
2022/01/22 00:38:02;;;;;;;9.63;2.88;;;;;;;-0.94;73.66;101049.59;4923670;29;20059;-94
2022/01/22 00:40:29;;;;;;;7.28;2.40;;;;;;;-0.93;73.89;101043.72;4923977;29;20136;-93
2022/01/22 00:42:57;;;;;;;9.38;2.28;;;;;;;-1.03;73.61;101029.72;4924831;29;20056;-93
2022/01/22 00:45:24;;;;;;;7.80;1.80;;;;;;;-1.02;73.56;101034.00;4924805;29;20039;-92
2022/01/22 00:47:51;;;;;;;8.48;2.00;;;;;;;-0.96;73.45;101048.66;4924999;29;20112;-93
2022/01/22 00:50:23;;;;;;;6.53;1.65;;;;;;;-0.99;73.53;101043.44;4926581;29;20054;-93
2022/01/22 00:52:51;;;;;;;6.22;1.70;;;;;;;-0.98;73.69;101055.38;4923434;29;20044;-92
2022/01/22 00:55:19;;;;;;;6.30;1.63;;;;;;;-0.95;73.11;101058.03;4927461;29;20056;-94
2022/01/22 00:57:46;;;;;;;3.97;1.38;;;;;;;-1.09;72.55;101041.28;4925797;29;20054;-93
2022/01/22 01:00:16;;;;;;;4.72;1.40;;;;;;;-1.00;72.10;101062.94;4922516;29;20136;-92
2022/01/22 01:02:44;;;;;;;6.82;1.88;;;;;;;-1.04;72.05;101066.16;4920575;29;20048;-92
2022/01/22 01:05:13;;;;;;;4.88;1.25;;;;;;;-1.08;71.86;101066.78;4921614;29;20047;-95
2022/01/22 01:07:43;;;;;;;6.43;1.40;;;;;;;-1.10;71.36;101067.53;4920814;29;20062;-91
2022/01/22 01:10:14;;;;;;;4.43;1.13;;;;;;;-1.02;71.59;101073.84;4921388;29;20060;-94
2022/01/22 01:12:42;;;;;;;6.15;1.30;;;;;;;-1.08;70.53;101071.00;4922338;29;20048;-92
2022/01/22 01:15:21;;;;;;;8.45;1.30;;;;;;;-1.08;70.37;101074.44;4928546;29;20066;-93
2022/01/22 01:23:23;;;;;;;4.60;1.05;;;;;;;-1.06;70.45;101077.03;4917000;29;20036;-92
2022/01/22 01:34:31;;;;;;;3.58;0.90;;;;;;;-1.04;69.20;101066.16;4928314;29;20107;-92
2022/01/22 01:36:58;;;;;;;4.28;1.10;;;;;;;-1.11;68.95;101059.03;4926866;29;20181;-92
2022/01/22 01:39:32;;;;;;;5.30;1.10;;;;;;;-1.02;68.77;101064.53;4931034;29;20082;-93
2022/01/22 01:42:03;;;;;;;4.63;1.40;;;;;;;-1.00;68.90;101057.84;4931353;29;20463;-93
2022/01/22 01:44:31;;;;;;;3.45;1.10;;;;;;;-0.99;68.79;101053.63;4927079;29;20052;-95
2022/01/22 01:47:00;;;;;;;3.58;0.90;;;;;;;-0.91;68.28;101062.47;4923922;29;20139;-94
2022/01/22 01:49:29;;;;;;;4.68;1.00;;;;;;;-0.93;67.71;101042.84;4928527;29;20075;-94
2022/01/22 01:51:59;;;;;;;5.18;0.95;;;;;;;-0.85;66.66;101052.53;4924474;29;20059;-93
2022/01/22 01:54:32;;;;;;;4.10;0.82;;;;;;;-0.78;66.04;101064.72;4928475;29;21958;-93
2022/01/22 01:59:47;;;;;;;3.58;0.90;;;;;;;-0.77;65.93;101061.38;4928174;29;20071;-93
2022/01/22 02:02:15;;;;;;;5.43;1.00;;;;;;;-0.69;65.79;101084.59;4928563;29;20066;-95
2022/01/22 02:04:42;;;;;;;4.82;1.08;;;;;;;-0.68;65.99;101074.47;4927430;29;20067;-91
2022/01/22 02:07:11;;;;;;;2.88;0.98;;;;;;;-0.70;65.67;101063.38;4925300;29;20056;-93
2022/01/22 02:09:43;;;;;;;4.13;0.93;;;;;;;-0.62;65.56;101076.41;4918575;29;20048;-93
2022/01/22 02:12:16;;;;;;;3.10;0.98;;;;;;;-0.63;66.26;101067.91;4927964;29;20051;-93
2022/01/22 02:25:43;;;;;;;2.53;0.68;;;;;;;-0.38;64.68;101089.31;4926428;29;20051;-93
2022/01/22 02:28:12;;;;;;;3.13;0.90;;;;;;;-0.34;64.89;101086.94;4924266;29;20044;-93
2022/01/22 02:30:43;;;;;;;3.78;1.00;;;;;;;-0.42;64.70;101079.81;4926024;29;20514;-95
2022/01/22 02:33:25;;;;;;;2.92;0.77;;;;;;;-0.34;64.67;101084.41;4927396;29;20444;-93
2022/01/22 02:36:00;;;;;;;2.53;0.70;;;;;;;-0.35;65.32;101069.94;4921871;29;20432;-93
2022/01/22 02:38:35;;;;;;;5.93;1.08;;;;;;;-0.31;65.29;101076.03;4925419;29;20036;-94
2022/01/22 02:41:04;;;;;;;5.20;0.90;;;;;;;-0.21;65.12;101098.50;4924734;29;20071;-93
2022/01/22 02:43:33;;;;;;;4.15;1.35;;;;;;;-0.24;64.77;101090.75;4925747;29;20146;-93
2022/01/22 02:46:01;;;;;;;4.75;0.73;;;;;;;-0.24;65.07;101089.88;4926927;29;20127;-94
2022/01/22 02:48:28;;;;;;;3.85;1.00;;;;;;;-0.17;65.08;101091.84;4923665;29;20056;-94
2022/01/22 02:50:56;;;;;;;6.57;1.50;;;;;;;-0.20;64.87;101090.06;4923643;29;20048;-93
2022/01/22 02:53:23;;;;;;;2.47;0.80;;;;;;;-0.26;64.25;101092.34;4924619;29;20225;-94
2022/01/22 02:55:53;;;;;;;2.65;0.93;;;;;;;-0.17;64.23;101100.38;4924853;29;20083;-92
2022/01/22 02:58:20;;;;;;;3.85;1.10;;;;;;;-0.20;64.15;101091.72;4921514;29;20103;-93
2022/01/22 03:00:48;;;;;;;4.25;1.08;;;;;;;-0.13;63.42;101104.78;4924784;29;20095;-92
2022/01/22 03:03:15;;;;;;;4.32;0.98;;;;;;;-0.11;63.29;101115.91;4925039;29;21875;-92
2022/01/22 03:05:42;;;;;;;5.15;1.00;;;;;;;-0.18;62.60;101110.50;4922195;29;20076;-93
2022/01/22 03:08:11;;;;;;;2.80;0.90;;;;;;;-0.13;62.83;101119.19;4923834;29;20490;-93
2022/01/22 03:10:39;;;;;;;8.65;1.15;;;;;;;-0.16;63.19;101119.09;4925606;29;20059;-92
2022/01/22 03:16:10;;;;;;;5.38;0.95;;;;;;;-0.20;63.79;101128.28;4901090;29;20075;-92
2022/01/22 03:18:51;;;;;;;2.67;0.80;;;;;;;-0.17;64.02;101132.63;4927879;29;20407;-92
2022/01/22 03:21:36;;;;;;;2.58;0.98;;;;;;;-0.18;63.55;101139.41;4936749;29;20075;-93
2022/01/22 03:29:41;;;;;;;3.92;1.27;;;;;;;-0.29;64.22;101155.94;4913395;29;20062;-93
2022/01/22 03:32:11;;;;;;;4.63;1.13;;;;;;;-0.29;64.36;101158.47;4924576;29;20048;-94
2022/01/22 03:34:43;;;;;;;5.55;1.00;;;;;;;-0.28;64.81;101164.44;4924661;29;20048;-93
2022/01/22 03:37:11;;;;;;;3.60;1.02;;;;;;;-0.33;64.87;101167.66;4924477;29;20073;-92
2022/01/22 03:39:39;;;;;;;4.05;0.90;;;;;;;-0.35;64.70;101165.84;4929012;29;20055;-92
2022/01/22 03:42:07;;;;;;;2.92;0.95;;;;;;;-0.35;64.89;101170.94;4928334;29;20079;-93
2022/01/22 03:44:34;;;;;;;3.17;0.90;;;;;;;-0.39;66.04;101171.63;4927603;29;20066;-94
2022/01/22 03:47:04;;;;;;;3.63;1.10;;;;;;;-0.34;65.69;101175.25;4924565;29;20142;-94
2022/01/22 03:49:32;;;;;;;6.55;1.25;;;;;;;-0.38;65.58;101173.38;4923834;29;20520;-94
2022/01/22 03:51:59;;;;;;;3.38;1.35;;;;;;;-0.44;66.08;101161.25;4924222;29;20048;-93
2022/01/22 03:54:27;;;;;;;9.48;1.42;;;;;;;-0.30;65.59;101189.84;4926996;29;20044;-94
2022/01/22 03:56:54;;;;;;;4.70;1.45;;;;;;;-0.36;66.22;101192.13;4923070;29;20182;-94
2022/01/22 03:59:21;;;;;;;5.90;1.50;;;;;;;-0.37;66.90;101185.31;4924456;29;20142;-93
2022/01/22 04:04:43;;;;;;;3.88;1.35;;;;;;;-0.34;66.62;101203.25;4920410;29;20056;-93
2022/01/22 04:10:07;;;;;;;6.43;2.00;;;;;;;-0.26;66.37;101214.66;4922022;29;20106;-93
2022/01/22 04:12:42;;;;;;;3.95;1.38;;;;;;;-0.26;66.39;101219.75;4930281;29;20522;-92
2022/01/22 04:15:13;;;;;;;5.63;1.57;;;;;;;-0.20;66.75;101232.75;4919178;29;20052;-92
2022/01/22 04:25:59;;;;;;;5.03;0.88;;;;;;;-0.19;66.80;101244.69;4929716;29;20130;-93
2022/01/22 04:28:26;;;;;;;7.97;1.20;;;;;;;-0.18;67.01;101246.41;4928329;29;20054;-95
2022/01/22 04:30:54;;;;;;;3.97;1.13;;;;;;;-0.12;67.04;101244.13;4925009;29;20051;-93
2022/01/22 04:33:21;;;;;;;4.53;0.90;;;;;;;-0.12;66.11;101243.25;4924971;29;20048;-94
2022/01/22 04:35:50;;;;;;;3.92;1.15;;;;;;;-0.07;66.15;101252.84;4924121;29;20508;-93
2022/01/22 04:38:17;;;;;;;4.80;1.48;;;;;;;-0.05;66.04;101251.22;4926227;29;20142;-95
2022/01/22 04:40:44;;;;;;;5.20;1.40;;;;;;;-0.09;66.05;101259.56;4923967;29;20059;-93
2022/01/22 04:43:12;;;;;;;6.30;1.10;;;;;;;-0.04;66.21;101265.72;4923242;29;20075;-93
2022/01/22 04:45:55;;;;;;;3.35;0.95;;;;;;;-0.07;66.25;101268.13;4922167;29;20055;-93
2022/01/22 04:48:40;;;;;;;4.15;1.20;;;;;;;-0.02;66.50;101264.09;4923413;29;20043;-92
2022/01/22 04:56:37;;;;;;;4.97;1.05;;;;;;;-0.03;67.89;101280.19;4923664;29;19945;-94
2022/01/22 04:59:05;;;;;;;2.28;0.77;;;;;;;0.02;67.58;101287.19;4924254;29;20051;-94
2022/01/22 05:01:32;;;;;;;6.80;1.40;;;;;;;-0.03;67.74;101279.31;4921581;29;21077;-93
2022/01/22 05:03:59;;;;;;;3.65;0.82;;;;;;;-0.04;67.46;101278.47;4921594;29;20051;-93
2022/01/22 05:06:29;;;;;;;3.80;0.90;;;;;;;0.02;67.84;101277.00;4923661;29;20134;-92
2022/01/22 05:08:57;;;;;;;3.55;1.00;;;;;;;-0.11;66.89;101250.97;4922464;29;20044;-94
2022/01/22 05:11:25;;;;;;;2.95;0.98;;;;;;;-0.04;67.28;101282.69;4921528;29;20572;-93
2022/01/22 05:13:53;;;;;;;3.95;1.10;;;;;;;-0.03;67.21;101284.44;4926162;29;20052;-93
2022/01/22 05:16:21;;;;;;;2.10;1.02;;;;;;;-0.07;67.56;101267.25;4924098;29;20150;-96
2022/01/22 05:18:53;;;;;;;6.28;1.35;;;;;;;-0.03;66.63;101264.91;4919361;29;20060;-93
2022/01/22 05:21:22;;;;;;;3.88;1.30;;;;;;;-0.12;66.64;101254.31;4922472;29;20048;-93
2022/01/22 05:23:53;;;;;;;6.20;1.10;;;;;;;-0.10;66.13;101273.09;4921539;29;20052;-94
2022/01/22 05:26:57;;;;;;;4.45;0.88;;;;;;;-0.15;66.47;101264.38;4921607;29;20488;-93
2022/01/22 05:29:55;;;;;;;8.48;1.35;;;;;;;-0.15;66.17;101259.28;4916533;29;20062;-93
2022/01/22 05:32:34;;;;;;;5.03;1.30;;;;;;;-0.10;65.78;101283.28;4919602;29;20052;-92
2022/01/22 05:37:46;;;;;;;3.78;1.38;;;;;;;-0.14;66.47;101281.41;4926610;29;21810;-95
2022/01/22 05:40:14;;;;;;;3.50;1.00;;;;;;;-0.11;65.96;101298.53;4922915;29;20062;-93
2022/01/22 05:42:42;;;;;;;4.35;1.10;;;;;;;-0.15;65.65;101274.59;4926418;29;20072;-92
2022/01/22 05:45:10;;;;;;;4.45;0.98;;;;;;;-0.17;66.09;101291.47;4918655;29;20048;-92
2022/01/22 05:47:38;;;;;;;3.75;1.30;;;;;;;-0.12;65.84;101295.09;4923208;29;20348;-95
2022/01/22 05:50:12;;;;;;;4.25;1.17;;;;;;;-0.09;65.44;101295.22;4921885;29;20143;-95
2022/01/22 05:52:51;;;;;;;3.47;1.00;;;;;;;-0.09;65.48;101302.88;4923536;29;20468;-94
2022/01/22 06:00:55;;;;;;;4.35;1.05;;;;;;;-0.02;65.63;101307.44;4936348;29;20529;-96
2022/01/22 06:03:22;;;;;;;3.28;1.02;;;;;;;-0.09;65.47;101294.34;4933761;29;20112;-93
2022/01/22 06:05:50;;;;;;;2.85;1.02;;;;;;;0.02;65.08;101322.88;4927572;29;20052;-93
2022/01/22 06:08:18;;;;;;;2.40;1.02;;;;;;;-0.01;64.58;101319.38;4929023;29;20075;-94
2022/01/22 06:10:53;;;;;;;4.22;1.02;;;;;;;-0.08;64.84;101319.03;4933745;29;20040;-93
2022/01/22 06:13:28;;;;;;;6.75;1.80;;;;;;;-0.02;65.48;101332.91;4930595;29;20382;-94
2022/01/22 06:15:55;;;;;;;3.63;0.90;;;;;;;-0.04;65.00;101329.44;4930280;29;20067;-94
2022/01/22 06:18:23;;;;;;;6.78;1.38;;;;;;;-0.08;65.07;101332.66;4930151;29;20047;-94
2022/01/22 06:20:50;;;;;;;4.45;1.13;;;;;;;-0.13;65.52;101331.59;4931965;29;20145;-95
2022/01/22 06:23:17;;;;;;;4.65;1.08;;;;;;;-0.04;65.46;101352.38;4932293;29;20453;-94
2022/01/22 06:25:46;;;;;;;6.03;1.30;;;;;;;-0.02;65.76;101358.41;4930160;29;20036;-92
2022/01/22 06:28:14;;;;;;;5.22;1.15;;;;;;;-0.06;66.17;101345.47;4932295;29;20043;-93
2022/01/22 06:30:41;;;;;;;3.63;1.13;;;;;;;-0.01;65.30;101349.97;4929561;29;20050;-95
2022/01/22 06:33:08;;;;;;;4.75;1.98;;;;;;;-0.09;65.91;101356.41;4929203;29;20087;-95
2022/01/22 06:35:36;;;;;;;4.60;1.13;;;;;;;-0.09;66.16;101345.31;4928476;29;20132;-93
2022/01/22 06:38:06;;;;;;;10.48;3.63;;;;;;;-0.02;66.29;101353.31;4932049;29;20056;-93
2022/01/22 06:43:22;;;;;;;3.17;0.75;;;;;;;0.01;66.11;101352.59;4910915;29;20048;-94
2022/01/22 06:45:49;;;;;;;3.92;1.38;;;;;;;0.07;66.46;101373.25;4928993;29;20401;-93
2022/01/22 06:48:16;;;;;;;10.10;2.38;;;;;;;0.07;66.93;101354.56;4935578;29;20145;-95
2022/01/22 06:50:44;;;;;;;6.20;2.53;;;;;;;0.12;65.97;101376.88;4933343;29;20054;-95
2022/01/22 06:53:11;;;;;;;8.65;2.90;;;;;;;0.16;65.58;101378.75;4938327;29;21383;-94
2022/01/22 06:55:42;;;;;;;7.50;2.00;;;;;;;0.12;66.16;101396.41;4936859;28;20044;-94
2022/01/22 06:58:09;;;;;;;10.10;1.48;;;;;;;0.03;66.30;101380.72;4942240;29;20044;-95
2022/01/22 07:00:41;;;;;;;3.67;0.82;;;;;;;0.12;66.41;101396.41;4936051;29;20214;-94
2022/01/22 07:03:09;;;;;;;3.92;1.30;;;;;;;0.08;67.01;101389.44;4934079;29;20555;-95
2022/01/22 07:05:37;;;;;;;6.25;1.40;;;;;;;0.11;66.61;101400.63;4942721;28;20048;-95
2022/01/22 07:08:05;;;;;;;5.45;1.50;;;;;;;0.06;66.84;101385.94;4944392;29;20052;-94
2022/01/22 07:10:32;;;;;;;5.15;1.50;;;;;;;0.17;67.18;101410.22;4932617;29;20052;-95
2022/01/22 07:13:00;;;;;;;3.10;0.98;;;;;;;0.15;66.97;101422.03;4943572;29;20500;-95
2022/01/22 07:15:28;;;;;;;4.70;1.30;;;;;;;0.19;67.31;101423.91;4936114;29;20044;-94
2022/01/22 07:17:57;;;;;;;7.85;1.25;;;;;;;0.14;67.59;101403.31;4932601;29;20044;-96
2022/01/22 07:20:30;;;;;;;3.10;1.30;;;;;;;0.16;67.79;101416.13;4930946;29;20102;-94
2022/01/22 07:23:04;;;;;;;5.18;1.15;;;;;;;0.25;67.51;101413.97;4934247;29;20054;-95
2022/01/22 07:25:38;;;;;;;4.13;1.48;;;;;;;0.20;67.42;101415.47;4938114;29;20056;-95
2022/01/22 07:28:06;;;;;;;4.88;1.40;;;;;;;0.26;68.08;101428.47;4941205;29;20079;-96
2022/01/22 07:30:34;;;;;;;4.45;1.35;;;;;;;0.21;68.26;101432.50;4937078;29;20052;-96
2022/01/22 07:33:05;;;;;;;6.50;1.55;;;;;;;0.28;68.52;101442.16;4935197;29;20135;-95
2022/01/22 07:35:34;;;;;;;6.80;1.73;;;;;;;0.25;68.33;101439.47;4933959;29;20449;-94
2022/01/22 07:38:05;;;;;;;4.82;1.30;;;;;;;0.36;67.87;101463.78;4932991;29;20075;-94
2022/01/22 07:40:33;;;;;;;3.47;1.60;;;;;;;0.25;68.12;101449.69;4934255;29;20087;-94
2022/01/22 07:43:01;;;;;;;6.65;1.63;;;;;;;0.35;68.16;101467.13;4937772;29;20107;-93
2022/01/22 07:45:29;;;;;;;9.20;2.22;;;;;;;0.37;68.61;101465.53;4939091;29;20040;-94
2022/01/22 07:47:56;;;;;;;7.80;1.92;;;;;;;0.43;68.82;101470.03;4938498;29;20027;-91
2022/01/22 07:50:56;;;;;;;4.88;1.60;;;;;;;0.41;68.86;101467.41;4946234;29;20508;-95
2022/01/22 20:28:00;;;;;;;16.15;6.47;;;;;;;6.35;49.29;102075.00;5084270;28;20407;-59
2022/01/22 20:30:29;;;;;;;9.60;5.10;;;;;;;5.22;52.28;102084.13;5084026;28;20048;-60
2022/01/22 20:33:00;;;;;;;10.68;4.80;;;;;;;4.33;54.84;102097.94;5082252;28;20060;-60
2022/01/22 20:35:29;;;;;;;15.25;6.15;;;;;;;3.57;56.85;102092.28;5083179;28;20048;-60
2022/01/22 20:37:56;;;;;;;12.90;5.68;;;;;;;2.99;58.71;102090.66;5084647;28;20053;-60
2022/01/22 20:40:25;;;;;;;14.50;6.28;;;;;;;2.49;59.87;102096.94;5080700;28;20052;-58
2022/01/22 20:42:58;;;;;;;11.55;5.60;;;;;;;2.05;61.70;102093.97;5084722;28;20052;-59
2022/01/22 20:45:34;;;;;;;19.80;9.88;;;;;;;1.65;62.84;102094.59;5083243;28;20044;-59
2022/01/22 20:48:04;;;;;;;16.20;7.72;;;;;;;1.33;63.83;102097.22;5077505;28;20435;-59
2022/01/22 20:50:36;;;;;;;15.88;7.10;;;;;;;1.03;64.99;102092.28;5082378;28;20097;-59
2022/01/22 20:53:08;;;;;;;19.33;7.75;;;;;;;0.87;65.67;102094.81;5081630;28;20434;-59
2022/01/22 20:55:40;;;;;;;17.15;7.43;;;;;;;0.70;66.11;102087.97;5085380;28;20119;-59
2022/01/22 20:58:21;;;;;;;15.70;6.80;;;;;;;0.55;66.70;102098.25;5083253;28;20144;-60
2022/01/22 21:01:06;;;;;;;14.00;6.38;;;;;;;0.43;67.24;102108.63;5084472;28;20467;-59
2022/01/22 21:03:42;;;;;;;17.38;7.57;;;;;;;0.35;67.60;102109.00;5082001;28;20045;-59
2022/01/22 21:06:20;;;;;;;21.55;9.40;;;;;;;0.27;67.94;102111.16;5078615;28;20052;-59
2022/01/22 21:09:05;;;;;;;12.38;6.72;;;;;;;0.20;68.12;102106.50;5082168;28;20052;-59
2022/01/22 21:11:37;;;;;;;17.88;6.38;;;;;;;0.16;69.09;102117.31;5082801;28;20048;-59
2022/01/22 21:14:14;;;;;;;20.02;9.00;;;;;;;0.10;69.57;102110.22;5080249;28;20162;-61
2022/01/22 21:16:50;;;;;;;20.92;9.88;;;;;;;0.05;69.82;102118.41;5077426;28;20041;-59
2022/01/22 21:19:29;;;;;;;19.30;7.75;;;;;;;0.01;70.02;102104.63;5079314;28;20101;-59
2022/01/22 21:21:57;;;;;;;22.33;10.05;;;;;;;-0.04;70.57;102113.63;5079694;28;20493;-60
2022/01/22 21:24:28;;;;;;;24.83;10.10;;;;;;;-0.06;70.50;102120.31;5074759;28;20076;-59
2022/01/22 21:27:01;;;;;;;22.20;8.93;;;;;;;-0.08;70.64;102122.78;5072348;28;20418;-59
2022/01/22 21:29:34;;;;;;;16.45;7.53;;;;;;;-0.10;71.01;102123.50;5075383;28;20139;-60
2022/01/22 21:32:13;;;;;;;33.85;14.95;;;;;;;-0.14;71.73;102112.25;5077436;28;20072;-59
2022/01/22 21:34:53;;;;;;;17.90;9.25;;;;;;;-0.18;71.07;102120.50;5077119;28;20078;-60
2022/01/22 21:40:20;;;;;;;19.40;7.20;;;;;;;-0.21;71.69;102117.78;5047375;28;20060;-59
2022/01/22 21:42:49;;;;;;;15.15;6.80;;;;;;;-0.21;71.94;102120.34;5066763;28;20139;-59
2022/01/22 21:45:24;;;;;;;18.33;7.30;;;;;;;-0.23;72.02;102116.81;5065128;28;20645;-59
2022/01/22 21:48:02;;;;;;;16.90;7.38;;;;;;;-0.26;71.98;102111.56;5066112;28;20522;-60
2022/01/22 21:50:36;;;;;;;14.15;6.68;;;;;;;-0.26;72.54;102110.69;5064904;28;20172;-60
2022/01/22 21:53:11;;;;;;;18.42;9.30;;;;;;;-0.26;72.78;102106.47;5063969;28;20480;-59
2022/01/22 21:55:48;;;;;;;24.80;11.30;;;;;;;-0.26;73.04;102093.72;5064677;28;20045;-59
2022/01/22 21:58:23;;;;;;;23.83;10.68;;;;;;;-0.27;73.21;102089.41;5062503;28;20121;-59
2022/01/22 22:01:01;;;;;;;15.95;7.65;;;;;;;-0.28;73.07;102090.22;5063978;28;20409;-60
2022/01/22 22:03:36;;;;;;;16.55;7.20;;;;;;;-0.27;72.99;102086.88;5061074;28;20052;-60
2022/01/22 22:06:10;;;;;;;19.05;8.75;;;;;;;-0.24;73.27;102093.81;5062485;28;20060;-60
2022/01/22 22:08:49;;;;;;;18.83;9.50;;;;;;;-0.23;73.13;102106.63;5058638;28;20060;-59
2022/01/22 22:11:26;;;;;;;19.02;8.77;;;;;;;-0.24;73.36;102094.69;5059388;28;20056;-59
2022/01/22 22:13:54;;;;;;;20.95;7.72;;;;;;;-0.24;73.38;102097.22;5061222;28;20052;-59
2022/01/22 22:16:21;;;;;;;18.83;7.78;;;;;;;-0.24;73.10;102094.69;5062073;28;20106;-60
2022/01/22 22:18:50;;;;;;;15.63;6.63;;;;;;;-0.21;73.41;102106.72;5063659;28;20415;-60
2022/01/22 22:21:18;;;;;;;19.80;7.82;;;;;;;-0.21;73.41;102117.78;5065575;28;20548;-60
2022/01/22 22:23:45;;;;;;;27.48;10.95;;;;;;;-0.20;73.26;102117.00;5061170;28;20056;-59
2022/01/22 22:26:14;;;;;;;26.75;9.63;;;;;;;-0.21;73.60;102117.78;5058684;28;20056;-60
2022/01/22 22:28:41;;;;;;;27.40;11.73;;;;;;;-0.20;73.50;102111.91;5057329;28;20062;-60
2022/01/22 22:31:10;;;;;;;15.02;7.30;;;;;;;-0.19;73.59;102117.88;5058395;28;20056;-59
2022/01/22 22:33:40;;;;;;;16.33;7.75;;;;;;;-0.17;73.38;102112.06;5057603;28;20053;-60
2022/01/22 22:36:10;;;;;;;14.00;6.53;;;;;;;-0.17;73.89;102101.88;5054897;28;20056;-59
2022/01/22 22:38:38;;;;;;;12.07;6.05;;;;;;;-0.16;73.64;102100.22;5056337;28;20055;-60
2022/01/22 22:41:07;;;;;;;18.20;8.82;;;;;;;-0.14;73.53;102107.16;5058416;28;20048;-60
2022/01/22 22:43:36;;;;;;;19.30;7.75;;;;;;;-0.12;73.66;102105.56;5054124;28;20044;-60
2022/01/22 22:46:08;;;;;;;19.73;8.77;;;;;;;-0.11;73.74;102104.78;5061090;28;20061;-60
2022/01/22 22:48:36;;;;;;;25.67;14.70;;;;;;;-0.09;73.72;102102.31;5054693;28;20048;-60
2022/01/22 22:51:04;;;;;;;16.92;8.63;;;;;;;-0.09;73.79;102100.63;5055005;28;20064;-60
2022/01/22 22:53:33;;;;;;;25.15;11.35;;;;;;;-0.08;73.60;102102.41;5062071;28;20041;-59
2022/01/22 22:56:01;;;;;;;19.15;9.13;;;;;;;-0.08;73.67;102101.53;5060418;28;20155;-60
2022/01/22 22:58:30;;;;;;;16.98;7.32;;;;;;;-0.09;73.79;102105.75;5055091;28;20154;-59
2022/01/22 23:01:03;;;;;;;14.98;7.32;;;;;;;-0.08;73.71;102106.63;5055813;28;20393;-59
2022/01/22 23:03:32;;;;;;;17.95;8.65;;;;;;;-0.09;73.84;102105.75;5059178;28;20123;-60
2022/01/22 23:06:00;;;;;;;21.80;9.98;;;;;;;-0.09;73.67;102099.75;5053826;28;20049;-60
2022/01/22 23:08:27;;;;;;;16.88;8.85;;;;;;;-0.09;73.79;102099.75;5060734;28;20124;-59
2022/01/22 23:10:57;;;;;;;14.02;7.03;;;;;;;-0.09;74.01;102100.63;5056195;28;20044;-59
2022/01/22 23:13:28;;;;;;;24.17;10.55;;;;;;;-0.08;73.85;102106.63;5058971;28;20040;-60
2022/01/22 23:16:00;;;;;;;16.40;7.60;;;;;;;-0.09;73.84;102099.75;5062314;28;21029;-60
2022/01/22 23:21:15;;;;;;;16.60;8.35;;;;;;;-0.09;73.79;102095.53;5058983;28;20101;-60
2022/01/22 23:26:31;;;;;;;16.80;7.32;;;;;;;-0.07;73.54;102104.16;5060517;28;20064;-59
2022/01/22 23:28:58;;;;;;;14.02;6.50;;;;;;;-0.07;73.69;102104.16;5056755;28;20056;-60
2022/01/22 23:31:30;;;;;;;16.02;7.13;;;;;;;-0.08;73.59;102101.53;5057974;28;20056;-59
2022/01/22 23:34:02;;;;;;;15.65;6.30;;;;;;;-0.10;73.82;102096.34;5059546;28;20056;-60
2022/01/22 23:36:56;;;;;;;13.13;6.30;;;;;;;-0.10;73.56;102096.34;5061270;28;20053;-59
2022/01/22 23:56:13;;;;;;;20.38;7.80;;;;;;;-0.19;73.57;102098.38;5055470;28;20608;-59
2022/01/22 23:58:57;;;;;;;14.90;6.38;;;;;;;-0.18;73.46;102100.13;5053153;28;20501;-59
